sensor_id;sensor_type;location;lat;lon;timestamp;temperature;humidity
48328;DHT22;34136;51.022;7.082;2022-12-18T00:01:51;-4.30;3.90
48328;DHT22;34136;51.022;7.082;2022-12-18T00:04:59;-4.30;3.60
48328;DHT22;34136;51.022;7.082;2022-12-18T00:08:04;-4.30;4.00
48328;DHT22;34136;51.022;7.082;2022-12-18T00:10:51;-4.30;4.10
48328;DHT22;34136;51.022;7.082;2022-12-18T00:13:37;-4.20;4.00
48328;DHT22;34136;51.022;7.082;2022-12-18T00:16:25;-4.10;4.20
48328;DHT22;34136;51.022;7.082;2022-12-18T00:19:11;-4.10;3.20
48328;DHT22;34136;51.022;7.082;2022-12-18T00:22:18;-4.10;3.20
48328;DHT22;34136;51.022;7.082;2022-12-18T00:25:23;-4.10;2.40
48328;DHT22;34136;51.022;7.082;2022-12-18T00:28:09;-4.10;2.40
48328;DHT22;34136;51.022;7.082;2022-12-18T00:31:15;-4.00;2.20
48328;DHT22;34136;51.022;7.082;2022-12-18T00:34:22;-4.10;1.90
48328;DHT22;34136;51.022;7.082;2022-12-18T00:37:16;-4.10;1.70
48328;DHT22;34136;51.022;7.082;2022-12-18T00:40:06;-4.10;1.90
48328;DHT22;34136;51.022;7.082;2022-12-18T00:43:21;-4.10;2.10
48328;DHT22;34136;51.022;7.082;2022-12-18T00:46:08;-4.10;2.50
48328;DHT22;34136;51.022;7.082;2022-12-18T00:48:57;-4.00;2.20
48328;DHT22;34136;51.022;7.082;2022-12-18T00:51:50;-4.00;1.90
48328;DHT22;34136;51.022;7.082;2022-12-18T00:54:36;-3.90;1.80
48328;DHT22;34136;51.022;7.082;2022-12-18T00:57:23;-4.00;1.50
48328;DHT22;34136;51.022;7.082;2022-12-18T01:00:13;-4.00;1.70
48328;DHT22;34136;51.022;7.082;2022-12-18T01:03:01;-4.00;1.70
48328;DHT22;34136;51.022;7.082;2022-12-18T01:05:47;-4.00;1.60
48328;DHT22;34136;51.022;7.082;2022-12-18T01:08:34;-4.00;1.50
48328;DHT22;34136;51.022;7.082;2022-12-18T01:11:21;-3.90;1.30
48328;DHT22;34136;51.022;7.082;2022-12-18T01:14:11;-4.00;1.00
48328;DHT22;34136;51.022;7.082;2022-12-18T01:17:05;-4.00;1.30
48328;DHT22;34136;51.022;7.082;2022-12-18T01:20:17;-4.00;1.10
48328;DHT22;34136;51.022;7.082;2022-12-18T01:23:07;-4.00;1.00
48328;DHT22;34136;51.022;7.082;2022-12-18T01:26:14;-4.00;1.00
48328;DHT22;34136;51.022;7.082;2022-12-18T01:29:19;-4.10;1.00
48328;DHT22;34136;51.022;7.082;2022-12-18T01:32:24;-4.20;1.20
48328;DHT22;34136;51.022;7.082;2022-12-18T01:35:12;-4.20;1.70
48328;DHT22;34136;51.022;7.082;2022-12-18T01:37:58;-4.20;1.90
48328;DHT22;34136;51.022;7.082;2022-12-18T01:40:45;-4.20;3.00
48328;DHT22;34136;51.022;7.082;2022-12-18T01:46:31;-4.10;2.70
48328;DHT22;34136;51.022;7.082;2022-12-18T01:49:21;-4.00;2.80
48328;DHT22;34136;51.022;7.082;2022-12-18T01:52:07;-3.90;2.40
48328;DHT22;34136;51.022;7.082;2022-12-18T01:54:54;-3.90;1.70
48328;DHT22;34136;51.022;7.082;2022-12-18T01:58:00;-3.90;1.50
48328;DHT22;34136;51.022;7.082;2022-12-18T02:00:47;-3.90;1.10
48328;DHT22;34136;51.022;7.082;2022-12-18T02:03:39;-4.00;1.00
48328;DHT22;34136;51.022;7.082;2022-12-18T02:06:47;-4.00;1.30
48328;DHT22;34136;51.022;7.082;2022-12-18T02:09:55;-4.10;1.60
48328;DHT22;34136;51.022;7.082;2022-12-18T02:19:02;-4.20;1.60
48328;DHT22;34136;51.022;7.082;2022-12-18T02:29:04;-4.50;2.30
48328;DHT22;34136;51.022;7.082;2022-12-18T02:32:00;-4.50;2.70
48328;DHT22;34136;51.022;7.082;2022-12-18T02:34:51;-4.50;2.80
48328;DHT22;34136;51.022;7.082;2022-12-18T02:37:39;-4.60;2.50
48328;DHT22;34136;51.022;7.082;2022-12-18T02:40:28;-4.60;3.10
48328;DHT22;34136;51.022;7.082;2022-12-18T02:43:15;-4.60;2.60
48328;DHT22;34136;51.022;7.082;2022-12-18T02:46:31;-4.60;2.20
48328;DHT22;34136;51.022;7.082;2022-12-18T02:53:21;-4.70;3.00
48328;DHT22;34136;51.022;7.082;2022-12-18T02:56:20;-4.70;3.20
48328;DHT22;34136;51.022;7.082;2022-12-18T02:59:14;-4.60;3.40
48328;DHT22;34136;51.022;7.082;2022-12-18T03:08:37;-4.50;3.30
48328;DHT22;34136;51.022;7.082;2022-12-18T03:11:32;-4.50;2.40
48328;DHT22;34136;51.022;7.082;2022-12-18T03:14:23;-4.50;2.70
48328;DHT22;34136;51.022;7.082;2022-12-18T03:17:19;-4.50;2.80
48328;DHT22;34136;51.022;7.082;2022-12-18T03:20:29;-4.50;3.30
48328;DHT22;34136;51.022;7.082;2022-12-18T03:23:49;-4.30;3.50
48328;DHT22;34136;51.022;7.082;2022-12-18T03:26:38;-4.20;3.00
48328;DHT22;34136;51.022;7.082;2022-12-18T03:29:37;-4.20;2.90
48328;DHT22;34136;51.022;7.082;2022-12-18T03:32:31;-4.20;2.10
48328;DHT22;34136;51.022;7.082;2022-12-18T03:35:27;-4.20;1.70
48328;DHT22;34136;51.022;7.082;2022-12-18T03:38:18;-4.20;1.80
48328;DHT22;34136;51.022;7.082;2022-12-18T03:45:02;-4.20;2.00
48328;DHT22;34136;51.022;7.082;2022-12-18T03:48:08;-4.20;1.50
48328;DHT22;34136;51.022;7.082;2022-12-18T03:51:15;-4.30;1.90
48328;DHT22;34136;51.022;7.082;2022-12-18T03:54:17;-4.20;2.00
48328;DHT22;34136;51.022;7.082;2022-12-18T03:57:20;-4.30;2.30
48328;DHT22;34136;51.022;7.082;2022-12-18T04:00:15;-4.20;2.70
48328;DHT22;34136;51.022;7.082;2022-12-18T04:03:23;-4.20;2.10
48328;DHT22;34136;51.022;7.082;2022-12-18T04:06:11;-4.20;2.30
48328;DHT22;34136;51.022;7.082;2022-12-18T04:09:00;-4.20;2.80
48328;DHT22;34136;51.022;7.082;2022-12-18T04:11:48;-4.20;2.90
48328;DHT22;34136;51.022;7.082;2022-12-18T04:14:36;-4.00;3.40
48328;DHT22;34136;51.022;7.082;2022-12-18T04:17:23;-4.00;3.40
48328;DHT22;34136;51.022;7.082;2022-12-18T04:20:11;-3.90;2.80
48328;DHT22;34136;51.022;7.082;2022-12-18T04:23:04;-3.90;2.20
48328;DHT22;34136;51.022;7.082;2022-12-18T04:25:52;-3.90;2.50
48328;DHT22;34136;51.022;7.082;2022-12-18T04:28:53;-3.70;2.30
48328;DHT22;34136;51.022;7.082;2022-12-18T04:32:01;-3.80;2.20
48328;DHT22;34136;51.022;7.082;2022-12-18T04:34:58;-3.80;2.30
48328;DHT22;34136;51.022;7.082;2022-12-18T04:37:51;-3.70;2.50
48328;DHT22;34136;51.022;7.082;2022-12-18T04:40:46;-3.60;2.30
48328;DHT22;34136;51.022;7.082;2022-12-18T04:44:01;-3.50;1.60
48328;DHT22;34136;51.022;7.082;2022-12-18T04:46:47;-3.50;1.20
48328;DHT22;34136;51.022;7.082;2022-12-18T04:49:34;-3.50;1.00
48328;DHT22;34136;51.022;7.082;2022-12-18T04:52:20;-3.50;1.00
48328;DHT22;34136;51.022;7.082;2022-12-18T04:55:07;-3.50;1.00
48328;DHT22;34136;51.022;7.082;2022-12-18T04:57:54;-3.50;1.00
48328;DHT22;34136;51.022;7.082;2022-12-18T05:00:43;-3.60;1.00
48328;DHT22;34136;51.022;7.082;2022-12-18T05:03:30;-3.60;1.00
48328;DHT22;34136;51.022;7.082;2022-12-18T05:06:19;-3.60;1.00
48328;DHT22;34136;51.022;7.082;2022-12-18T05:09:08;-3.60;1.00
48328;DHT22;34136;51.022;7.082;2022-12-18T05:11:54;-3.70;1.00
48328;DHT22;34136;51.022;7.082;2022-12-18T05:14:43;-3.70;1.00
48328;DHT22;34136;51.022;7.082;2022-12-18T05:17:32;-3.70;1.00
48328;DHT22;34136;51.022;7.082;2022-12-18T05:20:19;-3.70;1.00
48328;DHT22;34136;51.022;7.082;2022-12-18T05:23:08;-3.70;1.00
48328;DHT22;34136;51.022;7.082;2022-12-18T05:26:00;-3.80;1.00
48328;DHT22;34136;51.022;7.082;2022-12-18T05:28:47;-3.70;1.00
48328;DHT22;34136;51.022;7.082;2022-12-18T05:31:36;-3.70;1.00
48328;DHT22;34136;51.022;7.082;2022-12-18T05:34:23;-3.80;1.00
48328;DHT22;34136;51.022;7.082;2022-12-18T05:37:12;-3.80;1.00
48328;DHT22;34136;51.022;7.082;2022-12-18T05:40:01;-3.80;1.00
48328;DHT22;34136;51.022;7.082;2022-12-18T05:42:52;-3.80;1.00
48328;DHT22;34136;51.022;7.082;2022-12-18T05:45:39;-3.70;1.00
48328;DHT22;34136;51.022;7.082;2022-12-18T05:48:26;-3.80;1.00
48328;DHT22;34136;51.022;7.082;2022-12-18T05:51:15;-3.70;1.00
48328;DHT22;34136;51.022;7.082;2022-12-18T05:54:02;-3.70;1.00
48328;DHT22;34136;51.022;7.082;2022-12-18T05:56:49;-3.80;1.00
48328;DHT22;34136;51.022;7.082;2022-12-18T05:59:35;-3.80;1.00
48328;DHT22;34136;51.022;7.082;2022-12-18T06:02:22;-3.70;1.00
48328;DHT22;34136;51.022;7.082;2022-12-18T06:05:11;-3.70;1.00
48328;DHT22;34136;51.022;7.082;2022-12-18T06:07:58;-3.80;1.00
48328;DHT22;34136;51.022;7.082;2022-12-18T06:10:50;-3.80;1.00
48328;DHT22;34136;51.022;7.082;2022-12-18T06:13:37;-3.70;1.00
48328;DHT22;34136;51.022;7.082;2022-12-18T06:16:31;-3.80;1.00
48328;DHT22;34136;51.022;7.082;2022-12-18T06:19:20;-3.80;1.00
48328;DHT22;34136;51.022;7.082;2022-12-18T06:22:06;-3.70;1.00
48328;DHT22;34136;51.022;7.082;2022-12-18T06:24:53;-3.70;1.00
48328;DHT22;34136;51.022;7.082;2022-12-18T06:27:39;-3.70;1.00
48328;DHT22;34136;51.022;7.082;2022-12-18T06:30:26;-3.80;1.00
48328;DHT22;34136;51.022;7.082;2022-12-18T06:33:12;-3.80;1.00
48328;DHT22;34136;51.022;7.082;2022-12-18T06:36:01;-3.80;1.00
48328;DHT22;34136;51.022;7.082;2022-12-18T06:38:48;-3.80;1.00
48328;DHT22;34136;51.022;7.082;2022-12-18T06:41:35;-3.90;1.00
48328;DHT22;34136;51.022;7.082;2022-12-18T06:44:21;-3.90;1.00
48328;DHT22;34136;51.022;7.082;2022-12-18T06:47:08;-4.00;1.00
48328;DHT22;34136;51.022;7.082;2022-12-18T06:49:54;-4.00;1.00
48328;DHT22;34136;51.022;7.082;2022-12-18T06:52:41;-4.10;1.00
48328;DHT22;34136;51.022;7.082;2022-12-18T06:55:28;-4.10;1.00
48328;DHT22;34136;51.022;7.082;2022-12-18T06:58:23;-4.10;1.00
48328;DHT22;34136;51.022;7.082;2022-12-18T07:01:13;-4.20;1.00
48328;DHT22;34136;51.022;7.082;2022-12-18T07:04:00;-4.10;1.00
48328;DHT22;34136;51.022;7.082;2022-12-18T07:06:49;-4.20;1.00
48328;DHT22;34136;51.022;7.082;2022-12-18T07:09:37;-4.20;1.00
48328;DHT22;34136;51.022;7.082;2022-12-18T07:12:24;-4.20;1.00
48328;DHT22;34136;51.022;7.082;2022-12-18T07:15:16;-4.20;1.00
48328;DHT22;34136;51.022;7.082;2022-12-18T07:18:03;-4.20;1.00
48328;DHT22;34136;51.022;7.082;2022-12-18T07:20:50;-4.20;1.00
48328;DHT22;34136;51.022;7.082;2022-12-18T07:23:36;-4.30;1.00
48328;DHT22;34136;51.022;7.082;2022-12-18T07:26:23;-4.30;1.00
48328;DHT22;34136;51.022;7.082;2022-12-18T07:29:09;-4.40;1.00
48328;DHT22;34136;51.022;7.082;2022-12-18T07:32:14;-4.40;1.30
48328;DHT22;34136;51.022;7.082;2022-12-18T07:35:19;-4.40;1.50
48328;DHT22;34136;51.022;7.082;2022-12-18T07:38:05;-4.50;1.40
48328;DHT22;34136;51.022;7.082;2022-12-18T07:40:52;-4.50;1.30
48328;DHT22;34136;51.022;7.082;2022-12-18T07:43:57;-4.50;1.80
48328;DHT22;34136;51.022;7.082;2022-12-18T07:46:42;-4.50;2.20
48328;DHT22;34136;51.022;7.082;2022-12-18T07:49:28;-4.50;2.40
48328;DHT22;34136;51.022;7.082;2022-12-18T07:52:15;-4.40;2.20
48328;DHT22;34136;51.022;7.082;2022-12-18T07:55:01;-4.40;2.50
48328;DHT22;34136;51.022;7.082;2022-12-18T07:58:06;-4.40;2.30
48328;DHT22;34136;51.022;7.082;2022-12-18T08:01:12;-4.30;2.10
48328;DHT22;34136;51.022;7.082;2022-12-18T08:03:58;-4.30;2.00
48328;DHT22;34136;51.022;7.082;2022-12-18T08:06:44;-4.20;1.80
48328;DHT22;34136;51.022;7.082;2022-12-18T08:09:31;-4.10;1.60
48328;DHT22;34136;51.022;7.082;2022-12-18T08:12:17;-4.00;1.20
48328;DHT22;34136;51.022;7.082;2022-12-18T08:15:04;-4.00;1.00
48328;DHT22;34136;51.022;7.082;2022-12-18T08:17:50;-4.00;1.00
48328;DHT22;34136;51.022;7.082;2022-12-18T08:20:55;-3.90;1.10
48328;DHT22;34136;51.022;7.082;2022-12-18T08:24:01;-3.90;1.00
48328;DHT22;34136;51.022;7.082;2022-12-18T08:26:47;-3.80;1.00
48328;DHT22;34136;51.022;7.082;2022-12-18T08:29:34;-3.70;1.00
48328;DHT22;34136;51.022;7.082;2022-12-18T08:32:20;-3.60;1.00
48328;DHT22;34136;51.022;7.082;2022-12-18T08:35:34;-3.50;1.00
48328;DHT22;34136;51.022;7.082;2022-12-18T08:38:24;-3.40;1.00
48328;DHT22;34136;51.022;7.082;2022-12-18T08:41:11;-3.30;1.00
48328;DHT22;34136;51.022;7.082;2022-12-18T08:43:58;-3.30;1.00
48328;DHT22;34136;51.022;7.082;2022-12-18T08:46:45;-3.20;1.00
48328;DHT22;34136;51.022;7.082;2022-12-18T08:49:31;-3.10;1.00
48328;DHT22;34136;51.022;7.082;2022-12-18T08:52:17;-3.00;1.00
48328;DHT22;34136;51.022;7.082;2022-12-18T08:55:04;-3.00;1.00
48328;DHT22;34136;51.022;7.082;2022-12-18T08:57:51;-2.90;1.00
48328;DHT22;34136;51.022;7.082;2022-12-18T09:00:37;-2.80;1.00
48328;DHT22;34136;51.022;7.082;2022-12-18T09:03:42;-2.70;1.00
48328;DHT22;34136;51.022;7.082;2022-12-18T09:06:28;-2.60;1.00
48328;DHT22;34136;51.022;7.082;2022-12-18T09:09:14;-2.60;1.00
48328;DHT22;34136;51.022;7.082;2022-12-18T09:12:01;-2.50;1.00
48328;DHT22;34136;51.022;7.082;2022-12-18T09:14:47;-2.40;1.00
48328;DHT22;34136;51.022;7.082;2022-12-18T09:17:33;-2.30;1.00
48328;DHT22;34136;51.022;7.082;2022-12-18T09:20:19;-2.20;1.00
48328;DHT22;34136;51.022;7.082;2022-12-18T09:23:06;-2.20;1.00
48328;DHT22;34136;51.022;7.082;2022-12-18T09:25:58;-2.10;1.00
48328;DHT22;34136;51.022;7.082;2022-12-18T09:28:45;-2.00;1.00
48328;DHT22;34136;51.022;7.082;2022-12-18T09:31:31;-2.00;1.00
48328;DHT22;34136;51.022;7.082;2022-12-18T09:34:17;-1.90;1.00
48328;DHT22;34136;51.022;7.082;2022-12-18T09:37:04;-1.80;1.00
48328;DHT22;34136;51.022;7.082;2022-12-18T09:40:18;-1.70;1.00
48328;DHT22;34136;51.022;7.082;2022-12-18T09:43:06;-1.60;1.00
48328;DHT22;34136;51.022;7.082;2022-12-18T09:45:57;-1.60;1.00
48328;DHT22;34136;51.022;7.082;2022-12-18T09:48:49;-1.50;1.00
48328;DHT22;34136;51.022;7.082;2022-12-18T09:52:02;-1.40;1.00
48328;DHT22;34136;51.022;7.082;2022-12-18T09:57:57;-1.30;1.00
48328;DHT22;34136;51.022;7.082;2022-12-18T10:00:46;-1.30;1.00
48328;DHT22;34136;51.022;7.082;2022-12-18T10:03:32;-1.20;1.00
48328;DHT22;34136;51.022;7.082;2022-12-18T10:09:37;-1.00;1.00
48328;DHT22;34136;51.022;7.082;2022-12-18T10:12:54;-0.90;1.00
48328;DHT22;34136;51.022;7.082;2022-12-18T10:25:35;-0.70;1.00
48328;DHT22;34136;51.022;7.082;2022-12-18T10:28:25;-0.60;1.00
48328;DHT22;34136;51.022;7.082;2022-12-18T10:31:18;-0.50;1.00
48328;DHT22;34136;51.022;7.082;2022-12-18T10:34:08;-0.40;1.00
48328;DHT22;34136;51.022;7.082;2022-12-18T10:36:54;-0.40;1.00
48328;DHT22;34136;51.022;7.082;2022-12-18T10:39:43;-0.30;1.00
48328;DHT22;34136;51.022;7.082;2022-12-18T10:42:29;-0.20;1.00
48328;DHT22;34136;51.022;7.082;2022-12-18T10:45:17;-0.20;1.00
48328;DHT22;34136;51.022;7.082;2022-12-18T10:48:03;-0.10;1.00
48328;DHT22;34136;51.022;7.082;2022-12-18T10:50:51;0.00;1.00
48328;DHT22;34136;51.022;7.082;2022-12-18T10:53:37;0.00;1.00
48328;DHT22;34136;51.022;7.082;2022-12-18T10:56:27;0.00;1.00
48328;DHT22;34136;51.022;7.082;2022-12-18T10:59:50;0.10;1.00
48328;DHT22;34136;51.022;7.082;2022-12-18T11:02:38;0.10;1.00
48328;DHT22;34136;51.022;7.082;2022-12-18T11:05:42;0.20;1.00
48328;DHT22;34136;51.022;7.082;2022-12-18T11:08:28;0.20;1.00
48328;DHT22;34136;51.022;7.082;2022-12-18T11:11:22;0.20;1.00
48328;DHT22;34136;51.022;7.082;2022-12-18T11:14:27;0.20;1.00
48328;DHT22;34136;51.022;7.082;2022-12-18T11:17:35;0.30;1.00
48328;DHT22;34136;51.022;7.082;2022-12-18T11:20:32;0.30;1.00
48328;DHT22;34136;51.022;7.082;2022-12-18T11:23:21;0.40;1.00
48328;DHT22;34136;51.022;7.082;2022-12-18T11:26:35;0.30;1.00
48328;DHT22;34136;51.022;7.082;2022-12-18T11:29:40;0.40;1.00
48328;DHT22;34136;51.022;7.082;2022-12-18T11:32:35;0.40;1.00
48328;DHT22;34136;51.022;7.082;2022-12-18T11:35:58;0.50;1.00
48328;DHT22;34136;51.022;7.082;2022-12-18T11:38:48;0.50;1.00
48328;DHT22;34136;51.022;7.082;2022-12-18T11:42:10;0.50;1.00
48328;DHT22;34136;51.022;7.082;2022-12-18T11:45:08;0.50;1.00
48328;DHT22;34136;51.022;7.082;2022-12-18T11:48:18;0.50;1.00
48328;DHT22;34136;51.022;7.082;2022-12-18T11:51:14;0.40;1.00
48328;DHT22;34136;51.022;7.082;2022-12-18T11:54:06;0.50;1.00
48328;DHT22;34136;51.022;7.082;2022-12-18T11:57:03;0.50;1.00
48328;DHT22;34136;51.022;7.082;2022-12-18T12:00:03;0.60;1.00
48328;DHT22;34136;51.022;7.082;2022-12-18T12:03:15;0.40;1.00
48328;DHT22;34136;51.022;7.082;2022-12-18T12:06:19;0.50;1.00
48328;DHT22;34136;51.022;7.082;2022-12-18T12:09:52;0.40;1.00
48328;DHT22;34136;51.022;7.082;2022-12-18T12:18:56;0.40;1.00
48328;DHT22;34136;51.022;7.082;2022-12-18T12:21:54;0.30;1.00
48328;DHT22;34136;51.022;7.082;2022-12-18T12:25:18;0.40;1.00
48328;DHT22;34136;51.022;7.082;2022-12-18T12:28:26;0.30;1.00
48328;DHT22;34136;51.022;7.082;2022-12-18T12:31:23;0.30;1.00
48328;DHT22;34136;51.022;7.082;2022-12-18T12:34:26;0.30;1.00
48328;DHT22;34136;51.022;7.082;2022-12-18T12:40:26;0.20;1.00
48328;DHT22;34136;51.022;7.082;2022-12-18T12:46:21;0.20;1.00
48328;DHT22;34136;51.022;7.082;2022-12-18T12:49:18;0.20;1.00
48328;DHT22;34136;51.022;7.082;2022-12-18T12:52:26;0.20;1.00
48328;DHT22;34136;51.022;7.082;2022-12-18T12:55:34;0.20;1.00
48328;DHT22;34136;51.022;7.082;2022-12-18T13:07:32;0.00;1.00
48328;DHT22;34136;51.022;7.082;2022-12-18T13:13:16;0.00;1.00
48328;DHT22;34136;51.022;7.082;2022-12-18T13:16:07;0.00;1.00
48328;DHT22;34136;51.022;7.082;2022-12-18T13:18:55;0.00;1.00
